sensor_id;sensor_type;location;lat;lon;timestamp;temperature;humidity
32787;DHT22;19139;49.372;8.580;2022-10-04T00:01:10;19.70;91.40
32787;DHT22;19139;49.372;8.580;2022-10-04T00:03:45;19.70;91.40
32787;DHT22;19139;49.372;8.580;2022-10-04T00:06:23;19.70;91.40
32787;DHT22;19139;49.372;8.580;2022-10-04T00:11:37;19.70;91.40
32787;DHT22;19139;49.372;8.580;2022-10-04T00:14:17;19.60;91.30
32787;DHT22;19139;49.372;8.580;2022-10-04T00:16:44;19.60;91.40
32787;DHT22;19139;49.372;8.580;2022-10-04T00:24:27;19.60;91.30
32787;DHT22;19139;49.372;8.580;2022-10-04T00:29:40;19.60;91.30
32787;DHT22;19139;49.372;8.580;2022-10-04T00:34:50;19.60;91.30
32787;DHT22;19139;49.372;8.580;2022-10-04T00:37:23;19.60;91.30
32787;DHT22;19139;49.372;8.580;2022-10-04T00:40:14;19.60;91.60
32787;DHT22;19139;49.372;8.580;2022-10-04T00:42:48;19.60;91.30
32787;DHT22;19139;49.372;8.580;2022-10-04T00:45:27;19.60;91.30
32787;DHT22;19139;49.372;8.580;2022-10-04T00:50:58;19.60;91.30
32787;DHT22;19139;49.372;8.580;2022-10-04T00:53:40;19.60;91.30
32787;DHT22;19139;49.372;8.580;2022-10-04T00:56:18;19.60;91.20
32787;DHT22;19139;49.372;8.580;2022-10-04T00:59:07;19.50;91.20
32787;DHT22;19139;49.372;8.580;2022-10-04T01:01:35;19.60;91.20
32787;DHT22;19139;49.372;8.580;2022-10-04T01:04:05;19.50;91.20
32787;DHT22;19139;49.372;8.580;2022-10-04T01:06:43;19.50;91.20
32787;DHT22;19139;49.372;8.580;2022-10-04T01:09:15;19.50;91.10
32787;DHT22;19139;49.372;8.580;2022-10-04T01:11:51;19.50;91.10
32787;DHT22;19139;49.372;8.580;2022-10-04T01:14:43;19.50;91.10
32787;DHT22;19139;49.372;8.580;2022-10-04T01:17:15;19.50;91.10
32787;DHT22;19139;49.372;8.580;2022-10-04T01:19:52;19.50;91.20
32787;DHT22;19139;49.372;8.580;2022-10-04T01:22:34;19.50;91.10
32787;DHT22;19139;49.372;8.580;2022-10-04T01:25:02;19.50;91.10
32787;DHT22;19139;49.372;8.580;2022-10-04T01:27:42;19.50;91.10
32787;DHT22;19139;49.372;8.580;2022-10-04T01:30:15;19.50;91.00
32787;DHT22;19139;49.372;8.580;2022-10-04T01:32:42;19.50;91.00
32787;DHT22;19139;49.372;8.580;2022-10-04T01:35:14;19.50;91.00
32787;DHT22;19139;49.372;8.580;2022-10-04T01:37:46;19.50;91.00
32787;DHT22;19139;49.372;8.580;2022-10-04T01:40:12;19.50;91.00
32787;DHT22;19139;49.372;8.580;2022-10-04T01:42:48;19.50;91.00
32787;DHT22;19139;49.372;8.580;2022-10-04T01:45:28;19.50;91.00
32787;DHT22;19139;49.372;8.580;2022-10-04T01:48:04;19.50;91.00
32787;DHT22;19139;49.372;8.580;2022-10-04T01:50:42;19.40;90.90
32787;DHT22;19139;49.372;8.580;2022-10-04T01:53:30;19.40;90.90
32787;DHT22;19139;49.372;8.580;2022-10-04T01:56:08;19.40;90.90
32787;DHT22;19139;49.372;8.580;2022-10-04T01:58:53;19.40;90.90
32787;DHT22;19139;49.372;8.580;2022-10-04T02:04:03;19.40;90.90
32787;DHT22;19139;49.372;8.580;2022-10-04T02:06:39;19.40;90.90
32787;DHT22;19139;49.372;8.580;2022-10-04T02:09:17;19.40;90.90
32787;DHT22;19139;49.372;8.580;2022-10-04T02:11:47;19.40;90.90
32787;DHT22;19139;49.372;8.580;2022-10-04T02:14:26;19.40;90.90
32787;DHT22;19139;49.372;8.580;2022-10-04T02:16:53;19.30;90.80
32787;DHT22;19139;49.372;8.580;2022-10-04T02:19:32;19.30;90.90
32787;DHT22;19139;49.372;8.580;2022-10-04T02:22:07;19.40;90.90
32787;DHT22;19139;49.372;8.580;2022-10-04T02:24:36;19.40;90.90
32787;DHT22;19139;49.372;8.580;2022-10-04T02:27:04;19.40;90.80
32787;DHT22;19139;49.372;8.580;2022-10-04T02:29:31;19.40;90.80
32787;DHT22;19139;49.372;8.580;2022-10-04T02:32:04;19.40;90.80
32787;DHT22;19139;49.372;8.580;2022-10-04T02:34:55;19.30;90.80
32787;DHT22;19139;49.372;8.580;2022-10-04T02:37:24;19.30;90.80
32787;DHT22;19139;49.372;8.580;2022-10-04T02:40:03;19.30;90.80
32787;DHT22;19139;49.372;8.580;2022-10-04T02:45:15;19.30;90.80
32787;DHT22;19139;49.372;8.580;2022-10-04T02:47:50;19.30;90.80
32787;DHT22;19139;49.372;8.580;2022-10-04T02:50:29;19.30;90.80
32787;DHT22;19139;49.372;8.580;2022-10-04T02:53:18;19.30;90.80
32787;DHT22;19139;49.372;8.580;2022-10-04T02:55:53;19.30;91.10
32787;DHT22;19139;49.372;8.580;2022-10-04T02:58:25;19.30;90.80
32787;DHT22;19139;49.372;8.580;2022-10-04T03:00:57;19.30;90.80
32787;DHT22;19139;49.372;8.580;2022-10-04T03:03:29;19.30;90.80
32787;DHT22;19139;49.372;8.580;2022-10-04T03:06:11;19.30;90.80
32787;DHT22;19139;49.372;8.580;2022-10-04T03:08:56;19.30;90.80
32787;DHT22;19139;49.372;8.580;2022-10-04T03:11:28;19.30;90.80
32787;DHT22;19139;49.372;8.580;2022-10-04T03:14:04;19.30;90.80
32787;DHT22;19139;49.372;8.580;2022-10-04T03:16:40;19.30;90.80
32787;DHT22;19139;49.372;8.580;2022-10-04T03:19:15;19.30;90.80
32787;DHT22;19139;49.372;8.580;2022-10-04T03:21:44;19.30;90.80
32787;DHT22;19139;49.372;8.580;2022-10-04T03:24:27;19.30;90.90
32787;DHT22;19139;49.372;8.580;2022-10-04T03:26:56;19.30;90.80
32787;DHT22;19139;49.372;8.580;2022-10-04T03:29:26;19.30;90.80
32787;DHT22;19139;49.372;8.580;2022-10-04T03:31:55;19.20;90.80
32787;DHT22;19139;49.372;8.580;2022-10-04T03:34:35;19.20;90.80
32787;DHT22;19139;49.372;8.580;2022-10-04T03:37:06;19.20;90.80
32787;DHT22;19139;49.372;8.580;2022-10-04T03:39:41;19.20;90.80
32787;DHT22;19139;49.372;8.580;2022-10-04T03:42:30;19.20;90.70
32787;DHT22;19139;49.372;8.580;2022-10-04T03:45:12;19.20;90.70
32787;DHT22;19139;49.372;8.580;2022-10-04T03:47:47;19.20;90.60
32787;DHT22;19139;49.372;8.580;2022-10-04T03:50:28;19.20;90.50
32787;DHT22;19139;49.372;8.580;2022-10-04T03:53:11;19.20;90.60
32787;DHT22;19139;49.372;8.580;2022-10-04T03:55:44;19.20;90.50
32787;DHT22;19139;49.372;8.580;2022-10-04T03:58:15;19.10;90.50
32787;DHT22;19139;49.372;8.580;2022-10-04T04:01:10;19.10;90.60
32787;DHT22;19139;49.372;8.580;2022-10-04T04:06:16;19.10;90.60
32787;DHT22;19139;49.372;8.580;2022-10-04T04:08:46;19.10;90.60
32787;DHT22;19139;49.372;8.580;2022-10-04T04:11:34;19.10;90.90
32787;DHT22;19139;49.372;8.580;2022-10-04T04:14:10;19.10;90.60
32787;DHT22;19139;49.372;8.580;2022-10-04T04:16:42;19.10;90.60
32787;DHT22;19139;49.372;8.580;2022-10-04T04:19:16;19.10;90.60
32787;DHT22;19139;49.372;8.580;2022-10-04T04:21:44;19.10;90.60
32787;DHT22;19139;49.372;8.580;2022-10-04T04:24:31;19.10;90.60
32787;DHT22;19139;49.372;8.580;2022-10-04T04:27:03;19.10;90.60
32787;DHT22;19139;49.372;8.580;2022-10-04T04:29:46;19.10;90.60
32787;DHT22;19139;49.372;8.580;2022-10-04T04:32:24;19.10;90.60
32787;DHT22;19139;49.372;8.580;2022-10-04T04:35:04;19.00;90.60
32787;DHT22;19139;49.372;8.580;2022-10-04T04:37:34;19.00;90.60
32787;DHT22;19139;49.372;8.580;2022-10-04T04:40:18;19.00;90.60
32787;DHT22;19139;49.372;8.580;2022-10-04T04:42:51;19.00;90.60
32787;DHT22;19139;49.372;8.580;2022-10-04T04:45:25;19.00;90.60
32787;DHT22;19139;49.372;8.580;2022-10-04T04:48:00;19.00;90.60
32787;DHT22;19139;49.372;8.580;2022-10-04T04:50:36;19.00;90.60
32787;DHT22;19139;49.372;8.580;2022-10-04T04:53:11;19.00;90.60
32787;DHT22;19139;49.372;8.580;2022-10-04T04:55:41;19.00;90.60
32787;DHT22;19139;49.372;8.580;2022-10-04T04:58:35;19.00;90.60
32787;DHT22;19139;49.372;8.580;2022-10-04T05:01:15;19.00;90.60
32787;DHT22;19139;49.372;8.580;2022-10-04T05:03:43;19.00;91.00
32787;DHT22;19139;49.372;8.580;2022-10-04T05:06:24;19.00;90.60
32787;DHT22;19139;49.372;8.580;2022-10-04T05:08:51;19.00;90.60
32787;DHT22;19139;49.372;8.580;2022-10-04T05:11:19;19.00;90.60
32787;DHT22;19139;49.372;8.580;2022-10-04T05:14:00;19.00;90.70
32787;DHT22;19139;49.372;8.580;2022-10-04T05:19:03;19.10;91.10
32787;DHT22;19139;49.372;8.580;2022-10-04T05:21:32;19.20;91.10
32787;DHT22;19139;49.372;8.580;2022-10-04T05:26:57;19.30;91.10
32787;DHT22;19139;49.372;8.580;2022-10-04T05:29:36;19.30;91.00
32787;DHT22;19139;49.372;8.580;2022-10-04T05:35:00;19.40;91.10
32787;DHT22;19139;49.372;8.580;2022-10-04T05:37:43;19.40;91.10
32787;DHT22;19139;49.372;8.580;2022-10-04T05:42:42;19.40;91.10
32787;DHT22;19139;49.372;8.580;2022-10-04T05:45:19;19.40;91.10
32787;DHT22;19139;49.372;8.580;2022-10-04T05:47:53;19.50;91.20
32787;DHT22;19139;49.372;8.580;2022-10-04T05:50:35;19.50;91.30
32787;DHT22;19139;49.372;8.580;2022-10-04T05:59:07;19.50;91.60
32787;DHT22;19139;49.372;8.580;2022-10-04T06:05:00;19.50;91.50
32787;DHT22;19139;49.372;8.580;2022-10-04T06:07:52;19.50;91.70
32787;DHT22;19139;49.372;8.580;2022-10-04T06:10:49;19.60;91.80
32787;DHT22;19139;49.372;8.580;2022-10-04T06:13:52;19.60;92.00
32787;DHT22;19139;49.372;8.580;2022-10-04T06:19:16;19.60;92.10
32787;DHT22;19139;49.372;8.580;2022-10-04T06:24:33;19.60;92.20
32787;DHT22;19139;49.372;8.580;2022-10-04T06:27:12;19.60;92.30
32787;DHT22;19139;49.372;8.580;2022-10-04T06:30:05;19.60;92.30
32787;DHT22;19139;49.372;8.580;2022-10-04T06:35:37;19.60;92.50
32787;DHT22;19139;49.372;8.580;2022-10-04T06:38:43;19.60;92.50
32787;DHT22;19139;49.372;8.580;2022-10-04T06:55:30;19.70;92.60
32787;DHT22;19139;49.372;8.580;2022-10-04T06:58:09;19.70;92.60
32787;DHT22;19139;49.372;8.580;2022-10-04T07:01:18;19.70;92.50
32787;DHT22;19139;49.372;8.580;2022-10-04T07:06:25;19.70;92.40
32787;DHT22;19139;49.372;8.580;2022-10-04T07:08:54;19.70;92.40
32787;DHT22;19139;49.372;8.580;2022-10-04T07:14:44;19.70;92.20
32787;DHT22;19139;49.372;8.580;2022-10-04T07:17:25;19.40;92.00
32787;DHT22;19139;49.372;8.580;2022-10-04T07:19:59;19.30;92.20
32787;DHT22;19139;49.372;8.580;2022-10-04T07:22:33;19.20;92.30
32787;DHT22;19139;49.372;8.580;2022-10-04T07:25:21;19.20;92.30
32787;DHT22;19139;49.372;8.580;2022-10-04T07:28:03;19.10;92.30
32787;DHT22;19139;49.372;8.580;2022-10-04T07:30:59;19.00;92.30
32787;DHT22;19139;49.372;8.580;2022-10-04T07:33:32;19.00;92.40
32787;DHT22;19139;49.372;8.580;2022-10-04T07:36:18;18.90;92.20
32787;DHT22;19139;49.372;8.580;2022-10-04T07:38:54;18.80;92.40
32787;DHT22;19139;49.372;8.580;2022-10-04T07:41:34;18.80;92.40
32787;DHT22;19139;49.372;8.580;2022-10-04T07:47:08;18.70;92.60
32787;DHT22;19139;49.372;8.580;2022-10-04T07:49:45;18.80;92.70
32787;DHT22;19139;49.372;8.580;2022-10-04T07:52:42;19.10;92.90
32787;DHT22;19139;49.372;8.580;2022-10-04T08:01:32;19.40;92.40
32787;DHT22;19139;49.372;8.580;2022-10-04T08:07:25;19.50;92.40
32787;DHT22;19139;49.372;8.580;2022-10-04T08:13:02;19.50;92.30
32787;DHT22;19139;49.372;8.580;2022-10-04T08:15:37;19.50;92.20
32787;DHT22;19139;49.372;8.580;2022-10-04T08:18:29;19.50;92.20
32787;DHT22;19139;49.372;8.580;2022-10-04T08:21:07;19.50;92.20
32787;DHT22;19139;49.372;8.580;2022-10-04T08:26:31;19.60;92.20
32787;DHT22;19139;49.372;8.580;2022-10-04T08:37:54;19.60;92.20
32787;DHT22;19139;49.372;8.580;2022-10-04T08:48:59;19.60;92.20
32787;DHT22;19139;49.372;8.580;2022-10-04T08:58:11;19.70;92.20
32787;DHT22;19139;49.372;8.580;2022-10-04T09:01:06;19.70;92.10
32787;DHT22;19139;49.372;8.580;2022-10-04T09:06:37;19.70;92.10
32787;DHT22;19139;49.372;8.580;2022-10-04T09:20:58;19.70;92.10
32787;DHT22;19139;49.372;8.580;2022-10-04T09:23:48;19.70;92.10
32787;DHT22;19139;49.372;8.580;2022-10-04T09:26:28;19.80;92.10
32787;DHT22;19139;49.372;8.580;2022-10-04T09:29:16;19.70;92.10
32787;DHT22;19139;49.372;8.580;2022-10-04T09:31:57;19.80;92.20
32787;DHT22;19139;49.372;8.580;2022-10-04T09:34:50;19.80;92.20
32787;DHT22;19139;49.372;8.580;2022-10-04T09:37:43;19.80;92.10
32787;DHT22;19139;49.372;8.580;2022-10-04T09:52:12;19.90;92.50
32787;DHT22;19139;49.372;8.580;2022-10-04T09:58:14;19.90;92.70
32787;DHT22;19139;49.372;8.580;2022-10-04T10:00:58;19.80;92.80
32787;DHT22;19139;49.372;8.580;2022-10-04T10:03:33;19.90;92.90
32787;DHT22;19139;49.372;8.580;2022-10-04T10:15:29;20.00;93.10
32787;DHT22;19139;49.372;8.580;2022-10-04T10:26:41;20.00;93.20
32787;DHT22;19139;49.372;8.580;2022-10-04T10:29:41;20.10;93.30
32787;DHT22;19139;49.372;8.580;2022-10-04T10:46:13;20.10;93.50
32787;DHT22;19139;49.372;8.580;2022-10-04T10:49:14;20.10;93.60
32787;DHT22;19139;49.372;8.580;2022-10-04T10:52:16;20.10;93.60
32787;DHT22;19139;49.372;8.580;2022-10-04T10:57:55;20.10;93.60
32787;DHT22;19139;49.372;8.580;2022-10-04T11:04:01;20.10;93.60
32787;DHT22;19139;49.372;8.580;2022-10-04T11:30:24;20.30;93.90
32787;DHT22;19139;49.372;8.580;2022-10-04T11:36:12;20.30;93.90
32787;DHT22;19139;49.372;8.580;2022-10-04T11:38:56;20.30;93.90
32787;DHT22;19139;49.372;8.580;2022-10-04T11:41:46;20.40;93.70
32787;DHT22;19139;49.372;8.580;2022-10-04T11:44:44;20.40;93.70
32787;DHT22;19139;49.372;8.580;2022-10-04T12:20:50;20.50;93.90
32787;DHT22;19139;49.372;8.580;2022-10-04T12:26:29;20.60;94.10
32787;DHT22;19139;49.372;8.580;2022-10-04T12:35:24;20.60;94.20
32787;DHT22;19139;49.372;8.580;2022-10-04T12:41:08;20.60;94.30
32787;DHT22;19139;49.372;8.580;2022-10-04T12:44:06;20.70;94.30
32787;DHT22;19139;49.372;8.580;2022-10-04T12:52:22;20.80;94.50
32787;DHT22;19139;49.372;8.580;2022-10-04T12:57:54;20.80;94.50
32787;DHT22;19139;49.372;8.580;2022-10-04T13:00:39;20.80;94.50
32787;DHT22;19139;49.372;8.580;2022-10-04T13:03:30;20.80;94.50
32787;DHT22;19139;49.372;8.580;2022-10-04T13:09:34;20.90;94.60
32787;DHT22;19139;49.372;8.580;2022-10-04T13:18:33;20.90;94.60
32787;DHT22;19139;49.372;8.580;2022-10-04T13:21:09;21.00;94.70
32787;DHT22;19139;49.372;8.580;2022-10-04T13:23:55;21.00;94.70
32787;DHT22;19139;49.372;8.580;2022-10-04T13:29:10;21.00;94.60
32787;DHT22;19139;49.372;8.580;2022-10-04T13:31:55;21.10;94.70
32787;DHT22;19139;49.372;8.580;2022-10-04T13:37:32;21.10;94.80
32787;DHT22;19139;49.372;8.580;2022-10-04T13:48:39;21.10;94.50
32787;DHT22;19139;49.372;8.580;2022-10-04T13:51:39;21.10;94.50
32787;DHT22;19139;49.372;8.580;2022-10-04T13:54:34;21.10;94.40
32787;DHT22;19139;49.372;8.580;2022-10-04T14:00:30;21.20;94.40
32787;DHT22;19139;49.372;8.580;2022-10-04T14:03:20;21.20;94.30
32787;DHT22;19139;49.372;8.580;2022-10-04T14:23:39;21.20;94.10
32787;DHT22;19139;49.372;8.580;2022-10-04T14:35:18;21.30;94.10
32787;DHT22;19139;49.372;8.580;2022-10-04T14:49:25;21.30;94.00
32787;DHT22;19139;49.372;8.580;2022-10-04T14:57:50;21.30;94.00
32787;DHT22;19139;49.372;8.580;2022-10-04T15:09:25;21.30;94.00
32787;DHT22;19139;49.372;8.580;2022-10-04T15:11:59;21.30;94.00
32787;DHT22;19139;49.372;8.580;2022-10-04T15:17:30;21.30;93.90
32787;DHT22;19139;49.372;8.580;2022-10-04T15:23:15;21.30;94.00
32787;DHT22;19139;49.372;8.580;2022-10-04T15:25:53;21.30;93.90
32787;DHT22;19139;49.372;8.580;2022-10-04T15:36:45;21.30;93.90
32787;DHT22;19139;49.372;8.580;2022-10-04T15:42:33;21.30;93.90
32787;DHT22;19139;49.372;8.580;2022-10-04T16:07:55;21.30;93.90
32787;DHT22;19139;49.372;8.580;2022-10-04T16:19:37;21.30;93.80
32787;DHT22;19139;49.372;8.580;2022-10-04T16:22:25;21.30;93.90
32787;DHT22;19139;49.372;8.580;2022-10-04T16:33:37;21.30;93.80
32787;DHT22;19139;49.372;8.580;2022-10-04T16:36:10;21.30;93.80
32787;DHT22;19139;49.372;8.580;2022-10-04T16:38:47;21.30;93.80
32787;DHT22;19139;49.372;8.580;2022-10-04T16:41:52;21.20;93.80
32787;DHT22;19139;49.372;8.580;2022-10-04T16:44:31;21.20;93.80
32787;DHT22;19139;49.372;8.580;2022-10-04T16:47:11;21.30;93.90
32787;DHT22;19139;49.372;8.580;2022-10-04T16:49:53;21.20;94.30
32787;DHT22;19139;49.372;8.580;2022-10-04T17:04:05;21.20;94.00
32787;DHT22;19139;49.372;8.580;2022-10-04T17:06:58;21.20;93.90
32787;DHT22;19139;49.372;8.580;2022-10-04T17:12:31;21.20;93.90
32787;DHT22;19139;49.372;8.580;2022-10-04T17:17:59;21.20;93.90
32787;DHT22;19139;49.372;8.580;2022-10-04T17:20:44;21.20;93.80
32787;DHT22;19139;49.372;8.580;2022-10-04T17:26:21;21.20;93.80
32787;DHT22;19139;49.372;8.580;2022-10-04T17:28:55;21.20;93.80
32787;DHT22;19139;49.372;8.580;2022-10-04T17:37:18;21.20;93.80
32787;DHT22;19139;49.372;8.580;2022-10-04T17:45:49;21.20;93.90
32787;DHT22;19139;49.372;8.580;2022-10-04T17:48:27;21.20;94.00
32787;DHT22;19139;49.372;8.580;2022-10-04T17:51:40;21.30;94.10
32787;DHT22;19139;49.372;8.580;2022-10-04T17:54:45;21.30;94.20
32787;DHT22;19139;49.372;8.580;2022-10-04T18:00:24;21.30;94.40
32787;DHT22;19139;49.372;8.580;2022-10-04T18:02:58;21.30;94.50
32787;DHT22;19139;49.372;8.580;2022-10-04T18:08:09;21.20;94.50
32787;DHT22;19139;49.372;8.580;2022-10-04T18:10:59;21.30;94.60
32787;DHT22;19139;49.372;8.580;2022-10-04T18:13:47;21.20;94.60
32787;DHT22;19139;49.372;8.580;2022-10-04T18:16:44;21.30;94.70
32787;DHT22;19139;49.372;8.580;2022-10-04T18:19:34;21.30;94.80
32787;DHT22;19139;49.372;8.580;2022-10-04T18:22:20;21.30;94.80
32787;DHT22;19139;49.372;8.580;2022-10-04T18:25:13;21.30;94.80
32787;DHT22;19139;49.372;8.580;2022-10-04T18:30:20;21.40;94.90
32787;DHT22;19139;49.372;8.580;2022-10-04T18:32:53;21.40;94.90
32787;DHT22;19139;49.372;8.580;2022-10-04T18:38:28;21.40;95.10
32787;DHT22;19139;49.372;8.580;2022-10-04T18:41:20;21.40;95.10
32787;DHT22;19139;49.372;8.580;2022-10-04T18:43:50;21.40;95.20
32787;DHT22;19139;49.372;8.580;2022-10-04T18:46:19;21.40;95.20
32787;DHT22;19139;49.372;8.580;2022-10-04T18:48:54;21.40;95.30
32787;DHT22;19139;49.372;8.580;2022-10-04T18:56:49;21.40;95.70
32787;DHT22;19139;49.372;8.580;2022-10-04T18:59:32;21.40;96.00
32787;DHT22;19139;49.372;8.580;2022-10-04T19:02:48;21.40;96.20
32787;DHT22;19139;49.372;8.580;2022-10-04T19:05:44;21.40;96.10
32787;DHT22;19139;49.372;8.580;2022-10-04T19:08:43;21.40;96.10
32787;DHT22;19139;49.372;8.580;2022-10-04T19:11:27;21.40;96.10
32787;DHT22;19139;49.372;8.580;2022-10-04T19:14:24;21.40;96.00
32787;DHT22;19139;49.372;8.580;2022-10-04T19:17:49;21.40;95.90
32787;DHT22;19139;49.372;8.580;2022-10-04T19:20:18;21.40;95.80
32787;DHT22;19139;49.372;8.580;2022-10-04T19:23:10;21.40;95.70
32787;DHT22;19139;49.372;8.580;2022-10-04T19:25:54;21.40;95.60
32787;DHT22;19139;49.372;8.580;2022-10-04T19:28:42;21.40;95.50
32787;DHT22;19139;49.372;8.580;2022-10-04T19:31:20;21.40;95.40
32787;DHT22;19139;49.372;8.580;2022-10-04T19:39:33;21.40;95.20
32787;DHT22;19139;49.372;8.580;2022-10-04T19:42:09;21.40;95.20
32787;DHT22;19139;49.372;8.580;2022-10-04T19:52:34;21.40;95.00
32787;DHT22;19139;49.372;8.580;2022-10-04T19:55:36;21.40;94.90
32787;DHT22;19139;49.372;8.580;2022-10-04T19:58:42;21.30;94.80
32787;DHT22;19139;49.372;8.580;2022-10-04T20:01:18;21.30;94.80
32787;DHT22;19139;49.372;8.580;2022-10-04T20:03:56;21.30;94.80
32787;DHT22;19139;49.372;8.580;2022-10-04T20:06:48;21.30;94.70
32787;DHT22;19139;49.372;8.580;2022-10-04T20:12:31;21.40;94.70
32787;DHT22;19139;49.372;8.580;2022-10-04T20:17:58;21.30;94.60
32787;DHT22;19139;49.372;8.580;2022-10-04T20:23:09;21.30;94.50
32787;DHT22;19139;49.372;8.580;2022-10-04T20:25:57;21.30;94.50
32787;DHT22;19139;49.372;8.580;2022-10-04T20:30:58;21.30;94.40
32787;DHT22;19139;49.372;8.580;2022-10-04T20:36:09;21.30;94.40
32787;DHT22;19139;49.372;8.580;2022-10-04T20:38:56;21.30;94.40
32787;DHT22;19139;49.372;8.580;2022-10-04T20:44:39;21.30;94.30
32787;DHT22;19139;49.372;8.580;2022-10-04T20:49:52;21.30;94.30
32787;DHT22;19139;49.372;8.580;2022-10-04T20:52:26;21.30;94.30
32787;DHT22;19139;49.372;8.580;2022-10-04T20:54:59;21.30;94.20
32787;DHT22;19139;49.372;8.580;2022-10-04T20:57:38;21.30;94.20
32787;DHT22;19139;49.372;8.580;2022-10-04T21:00:21;21.30;94.20
32787;DHT22;19139;49.372;8.580;2022-10-04T21:02:48;21.30;94.20
32787;DHT22;19139;49.372;8.580;2022-10-04T21:05:23;21.30;94.10
32787;DHT22;19139;49.372;8.580;2022-10-04T21:08:28;21.30;94.10
32787;DHT22;19139;49.372;8.580;2022-10-04T21:13:58;21.30;94.10
32787;DHT22;19139;49.372;8.580;2022-10-04T21:16:43;21.30;94.10
32787;DHT22;19139;49.372;8.580;2022-10-04T21:27:36;21.30;94.00
32787;DHT22;19139;49.372;8.580;2022-10-04T21:30:15;21.30;94.00
32787;DHT22;19139;49.372;8.580;2022-10-04T21:32:47;21.30;94.00
32787;DHT22;19139;49.372;8.580;2022-10-04T21:35:19;21.30;94.00
32787;DHT22;19139;49.372;8.580;2022-10-04T21:37:45;21.30;93.90
32787;DHT22;19139;49.372;8.580;2022-10-04T21:40:12;21.30;93.90
32787;DHT22;19139;49.372;8.580;2022-10-04T21:42:39;21.30;93.90
32787;DHT22;19139;49.372;8.580;2022-10-04T21:45:10;21.30;93.90
32787;DHT22;19139;49.372;8.580;2022-10-04T21:47:36;21.30;93.90
32787;DHT22;19139;49.372;8.580;2022-10-04T21:50:08;21.20;93.80
32787;DHT22;19139;49.372;8.580;2022-10-04T21:52:40;21.30;93.90
32787;DHT22;19139;49.372;8.580;2022-10-04T21:55:06;21.30;93.90
32787;DHT22;19139;49.372;8.580;2022-10-04T21:57:35;21.20;93.80
32787;DHT22;19139;49.372;8.580;2022-10-04T22:00:08;21.30;93.80
32787;DHT22;19139;49.372;8.580;2022-10-04T22:02:39;21.20;93.80
32787;DHT22;19139;49.372;8.580;2022-10-04T22:05:06;21.20;93.80
32787;DHT22;19139;49.372;8.580;2022-10-04T22:07:38;21.30;93.80
32787;DHT22;19139;49.372;8.580;2022-10-04T22:10:09;21.30;93.80
32787;DHT22;19139;49.372;8.580;2022-10-04T22:12:36;21.30;93.80
32787;DHT22;19139;49.372;8.580;2022-10-04T22:15:08;21.30;93.80
32787;DHT22;19139;49.372;8.580;2022-10-04T22:17:39;21.20;93.70
32787;DHT22;19139;49.372;8.580;2022-10-04T22:20:06;21.20;93.70
32787;DHT22;19139;49.372;8.580;2022-10-04T22:22:38;21.30;93.70
32787;DHT22;19139;49.372;8.580;2022-10-04T22:25:17;21.20;93.70
32787;DHT22;19139;49.372;8.580;2022-10-04T22:27:49;21.20;93.70
32787;DHT22;19139;49.372;8.580;2022-10-04T22:32:49;21.20;93.70
32787;DHT22;19139;49.372;8.580;2022-10-04T22:35:18;21.20;93.70
32787;DHT22;19139;49.372;8.580;2022-10-04T22:37:50;21.20;93.70
32787;DHT22;19139;49.372;8.580;2022-10-04T22:42:51;21.20;93.60
32787;DHT22;19139;49.372;8.580;2022-10-04T22:45:24;21.20;93.60
32787;DHT22;19139;49.372;8.580;2022-10-04T22:47:58;21.20;93.60
32787;DHT22;19139;49.372;8.580;2022-10-04T22:50:31;21.20;93.60
32787;DHT22;19139;49.372;8.580;2022-10-04T22:53:10;21.20;93.60
32787;DHT22;19139;49.372;8.580;2022-10-04T22:55:39;21.20;93.60
32787;DHT22;19139;49.372;8.580;2022-10-04T22:58:17;21.20;93.60
32787;DHT22;19139;49.372;8.580;2022-10-04T23:00:46;21.20;93.60
32787;DHT22;19139;49.372;8.580;2022-10-04T23:03:31;21.20;93.60
32787;DHT22;19139;49.372;8.580;2022-10-04T23:05:59;21.20;93.50
32787;DHT22;19139;49.372;8.580;2022-10-04T23:08:27;21.20;93.60
32787;DHT22;19139;49.372;8.580;2022-10-04T23:10:59;21.20;93.60
32787;DHT22;19139;49.372;8.580;2022-10-04T23:13:26;21.20;93.50
32787;DHT22;19139;49.372;8.580;2022-10-04T23:16:09;21.20;93.50
32787;DHT22;19139;49.372;8.580;2022-10-04T23:18:38;21.20;93.50
32787;DHT22;19139;49.372;8.580;2022-10-04T23:21:24;21.20;93.50
32787;DHT22;19139;49.372;8.580;2022-10-04T23:24:03;21.20;93.50
32787;DHT22;19139;49.372;8.580;2022-10-04T23:26:38;21.20;93.50
32787;DHT22;19139;49.372;8.580;2022-10-04T23:29:22;21.20;93.50
32787;DHT22;19139;49.372;8.580;2022-10-04T23:31:49;21.20;93.50
32787;DHT22;19139;49.372;8.580;2022-10-04T23:34:35;21.20;93.50
32787;DHT22;19139;49.372;8.580;2022-10-04T23:39:46;21.20;93.50
32787;DHT22;19139;49.372;8.580;2022-10-04T23:42:24;21.20;93.40
32787;DHT22;19139;49.372;8.580;2022-10-04T23:45:00;21.20;93.40
32787;DHT22;19139;49.372;8.580;2022-10-04T23:47:34;21.20;93.40
32787;DHT22;19139;49.372;8.580;2022-10-04T23:50:23;21.20;93.40
32787;DHT22;19139;49.372;8.580;2022-10-04T23:52:58;21.20;93.40
32787;DHT22;19139;49.372;8.580;2022-10-04T23:55:33;21.20;93.40
32787;DHT22;19139;49.372;8.580;2022-10-04T23:58:35;21.20;93.40
